Time;durP1;ratioP1;P1;durP2;ratioP2;P2;SDS_P1;SDS_P2;PMS_P1;PMS_P2;Temp;Humidity;BMP_temperature;BMP_pressure;BME280_temperature;BME280_humidity;BME280_pressure;Samples;Min_cycle;Max_cycle;Signal;HPM_P1;HPM_P2
2023/09/29 00:00:13;;;;;;;10.43;6.63;;;15.40;99.90;;;;;;4895389;29;20184;-89
2023/09/29 00:02:47;;;;;;;10.13;6.07;;;15.40;99.90;;;;;;4894409;29;20187;-91
2023/09/29 00:05:19;;;;;;;8.65;5.63;;;15.30;99.90;;;;;;4891690;29;20250;-95
2023/09/29 00:07:46;;;;;;;7.90;5.97;;;15.40;99.90;;;;;;4893294;29;20231;-89
2023/09/29 00:10:16;;;;;;;11.48;6.38;;;15.30;99.90;;;;;;4895398;29;20236;-92
2023/09/29 00:12:50;;;;;;;9.32;7.00;;;15.30;99.90;;;;;;4894061;29;20184;-88
2023/09/29 00:15:18;;;;;;;7.93;6.15;;;15.20;99.90;;;;;;4895768;29;20212;-95
2023/09/29 00:17:44;;;;;;;9.98;6.78;;;15.20;99.90;;;;;;4895540;29;20184;-89
2023/09/29 00:20:24;;;;;;;12.50;6.57;;;15.20;99.90;;;;;;4894638;29;20188;-90
2023/09/29 00:23:03;;;;;;;11.52;7.40;;;15.30;99.90;;;;;;4894418;29;20240;-96
2023/09/29 00:25:29;;;;;;;10.55;7.07;;;15.20;99.90;;;;;;4894287;29;20196;-94
2023/09/29 00:27:57;;;;;;;13.23;8.00;;;15.30;99.90;;;;;;4893828;29;20299;-91
2023/09/29 00:30:23;;;;;;;11.00;7.25;;;15.20;99.90;;;;;;4888444;29;20182;-94
2023/09/29 00:32:53;;;;;;;11.77;7.25;;;15.20;99.90;;;;;;4887424;29;20247;-94
2023/09/29 00:37:56;;;;;;;9.05;7.47;;;15.30;99.90;;;;;;4889853;29;20219;-96
2023/09/29 00:40:23;;;;;;;10.27;7.18;;;15.30;99.90;;;;;;4886838;29;20663;-96
2023/09/29 00:42:49;;;;;;;10.88;7.55;;;15.40;99.90;;;;;;4887290;29;20187;-93
2023/09/29 00:45:25;;;;;;;10.70;7.07;;;15.40;99.90;;;;;;4887726;29;20176;-92
2023/09/29 00:47:56;;;;;;;8.20;7.40;;;15.50;99.90;;;;;;4884446;29;20212;-92
2023/09/29 00:50:23;;;;;;;10.98;7.53;;;15.40;99.90;;;;;;4886678;29;20224;-95
2023/09/29 00:52:58;;;;;;;11.30;8.70;;;15.50;99.90;;;;;;4888608;29;20244;-95
2023/09/29 00:55:27;;;;;;;10.00;7.82;;;15.50;99.90;;;;;;4890046;29;20592;-95
2023/09/29 00:57:57;;;;;;;9.63;8.38;;;15.50;99.90;;;;;;4890502;29;20180;-93
2023/09/29 01:03:13;;;;;;;11.45;7.65;;;15.50;99.90;;;;;;4890502;29;20172;-95
2023/09/29 01:05:45;;;;;;;12.00;8.40;;;15.50;99.90;;;;;;4888675;29;20180;-96
2023/09/29 01:08:19;;;;;;;11.30;7.60;;;15.50;99.90;;;;;;4892695;29;20218;-92
2023/09/29 01:10:54;;;;;;;9.68;8.57;;;15.50;99.90;;;;;;4892564;29;20202;-96
2023/09/29 01:13:33;;;;;;;13.05;8.60;;;15.50;99.90;;;;;;4893893;29;20191;-94
2023/09/29 01:16:00;;;;;;;12.15;8.63;;;15.40;99.90;;;;;;4894154;29;20172;-93
2023/09/29 01:18:26;;;;;;;13.43;8.90;;;15.50;99.90;;;;;;4893243;29;20176;-96
2023/09/29 01:20:53;;;;;;;11.05;8.70;;;15.50;99.90;;;;;;4890844;29;20199;-90
2023/09/29 01:23:23;;;;;;;14.45;9.95;;;15.40;99.90;;;;;;4894759;29;20287;-94
2023/09/29 01:25:49;;;;;;;12.32;9.00;;;15.40;99.90;;;;;;4894893;29;20267;-96
2023/09/29 01:28:14;;;;;;;14.23;9.30;;;15.30;99.90;;;;;;4890693;29;20230;-91
2023/09/29 01:30:44;;;;;;;16.58;10.30;;;15.30;99.90;;;;;;4889298;29;20184;-95
2023/09/29 01:33:10;;;;;;;15.00;11.05;;;15.30;99.90;;;;;;4883235;29;20271;-91
2023/09/29 01:35:36;;;;;;;12.02;9.70;;;15.20;99.90;;;;;;4882157;29;20214;-91
2023/09/29 01:38:02;;;;;;;13.38;9.50;;;15.20;99.90;;;;;;4884995;29;20188;-91
2023/09/29 01:40:29;;;;;;;14.88;10.65;;;15.20;99.90;;;;;;4882551;29;20176;-93
2023/09/29 01:43:03;;;;;;;11.88;9.55;;;15.20;99.90;;;;;;4883032;29;20549;-92
2023/09/29 01:45:32;;;;;;;13.65;11.07;;;15.20;99.90;;;;;;4886698;29;20183;-88
2023/09/29 01:48:00;;;;;;;17.05;10.88;;;15.30;99.90;;;;;;4886205;29;20212;-89
2023/09/29 01:50:26;;;;;;;15.35;11.10;;;15.20;99.90;;;;;;4884505;29;20183;-89
2023/09/29 01:53:00;;;;;;;13.45;12.05;;;15.20;99.90;;;;;;4884342;29;20246;-88
2023/09/29 01:55:26;;;;;;;17.23;12.73;;;15.20;99.90;;;;;;4884863;29;20167;-90
2023/09/29 01:57:57;;;;;;;19.73;14.25;;;15.20;99.90;;;;;;4884277;29;20184;-90
2023/09/29 02:00:24;;;;;;;24.40;14.75;;;15.30;99.90;;;;;;4883547;29;20179;-91
2023/09/29 02:02:55;;;;;;;20.02;14.82;;;15.30;99.90;;;;;;4882578;29;20184;-92
2023/09/29 02:05:21;;;;;;;23.85;16.50;;;15.40;99.90;;;;;;4881726;29;20271;-88
2023/09/29 02:07:49;;;;;;;20.85;15.93;;;15.40;99.90;;;;;;4882169;29;20671;-88
2023/09/29 02:10:21;;;;;;;21.02;15.15;;;15.30;99.90;;;;;;4882609;29;20564;-90
2023/09/29 02:13:03;;;;;;;21.30;14.45;;;15.40;99.90;;;;;;4880920;29;20198;-89
2023/09/29 02:15:29;;;;;;;20.45;15.23;;;15.30;99.90;;;;;;4884251;29;20156;-92
2023/09/29 02:17:55;;;;;;;26.63;16.08;;;15.30;99.90;;;;;;4882961;29;20275;-89
2023/09/29 02:20:28;;;;;;;23.27;16.13;;;15.30;99.90;;;;;;4883751;29;20211;-90
2023/09/29 02:23:02;;;;;;;19.35;14.85;;;15.30;99.90;;;;;;4883299;29;20192;-94
2023/09/29 02:25:29;;;;;;;24.95;16.27;;;15.30;99.90;;;;;;4882887;29;20207;-90
2023/09/29 02:27:57;;;;;;;20.65;16.35;;;15.30;99.90;;;;;;4882832;29;20211;-88
2023/09/29 02:30:24;;;;;;;25.83;16.23;;;15.20;99.90;;;;;;4882724;29;20184;-89
2023/09/29 02:32:52;;;;;;;20.40;16.58;;;15.20;99.90;;;;;;4883377;29;20327;-93
2023/09/29 02:35:18;;;;;;;24.67;17.92;;;15.20;99.90;;;;;;4882747;29;20180;-90
2023/09/29 02:37:45;;;;;;;23.42;17.80;;;15.20;99.90;;;;;;4884717;29;20184;-92
2023/09/29 02:40:11;;;;;;;22.80;16.83;;;15.20;99.90;;;;;;4882623;29;20697;-89
2023/09/29 02:42:37;;;;;;;24.60;17.83;;;15.20;99.90;;;;;;4884315;29;20195;-91
2023/09/29 02:45:05;;;;;;;22.23;16.35;;;15.20;99.90;;;;;;4884561;29;20177;-89
2023/09/29 02:47:32;;;;;;;26.23;17.20;;;15.20;99.90;;;;;;4883432;29;20218;-89
2023/09/29 02:49:58;;;;;;;26.05;17.65;;;15.10;99.90;;;;;;4881578;29;20180;-92
2023/09/29 02:52:26;;;;;;;26.45;18.75;;;15.10;99.90;;;;;;4880470;29;20698;-95
2023/09/29 02:54:54;;;;;;;25.80;18.33;;;15.10;99.90;;;;;;5284476;23;20278;-96
2023/09/29 02:57:21;;;;;;;25.75;18.58;;;15.10;99.90;;;;;;4903239;29;20567;-96
2023/09/29 02:59:47;;;;;;;29.38;19.55;;;15.10;99.90;;;;;;4918089;29;20186;-93
2023/09/29 03:02:14;;;;;;;23.45;18.85;;;15.20;99.90;;;;;;4918971;29;20634;-96
2023/09/29 03:04:40;;;;;;;27.20;18.25;;;15.10;99.90;;;;;;4918068;29;20622;-91
2023/09/29 03:07:09;;;;;;;26.55;19.38;;;15.10;99.90;;;;;;4916656;29;20215;-86
2023/09/29 03:09:36;;;;;;;26.00;20.67;;;15.10;99.90;;;;;;4900888;29;20182;-87
2023/09/29 03:12:03;;;;;;;24.33;18.15;;;15.10;99.90;;;;;;4916690;29;20193;-88
2023/09/29 03:14:29;;;;;;;24.00;19.42;;;15.10;99.90;;;;;;4917428;29;20187;-91
2023/09/29 03:16:59;;;;;;;25.88;19.50;;;15.20;99.90;;;;;;4917411;29;20180;-92
2023/09/29 03:19:26;;;;;;;22.60;17.25;;;15.20;99.90;;;;;;4917390;29;20179;-89
2023/09/29 03:21:53;;;;;;;25.33;18.27;;;15.20;99.90;;;;;;4917188;29;20187;-86
2023/09/29 03:24:19;;;;;;;22.63;17.15;;;15.20;99.90;;;;;;4911203;29;20247;-87
2023/09/29 03:26:49;;;;;;;18.92;15.77;;;15.20;99.90;;;;;;4898214;29;20243;-93
2023/09/29 03:29:15;;;;;;;20.73;16.10;;;15.30;99.90;;;;;;4898262;29;20179;-90
2023/09/29 03:31:40;;;;;;;19.55;14.95;;;15.30;99.90;;;;;;4883867;29;20263;-88
2023/09/29 03:34:06;;;;;;;19.27;14.57;;;15.40;99.90;;;;;;4898239;29;20185;-86
2023/09/29 03:36:33;;;;;;;16.95;12.68;;;15.40;99.90;;;;;;4898027;29;20180;-91
2023/09/29 03:38:59;;;;;;;16.90;12.00;;;15.50;99.90;;;;;;4897439;29;20199;-91
2023/09/29 03:41:25;;;;;;;15.95;11.75;;;15.50;99.90;;;;;;4898132;29;20184;-89
2023/09/29 03:43:52;;;;;;;15.38;11.77;;;15.60;99.90;;;;;;4897907;29;20271;-88
2023/09/29 03:46:20;;;;;;;11.20;9.23;;;15.60;99.90;;;;;;4897756;29;20302;-87
2023/09/29 03:48:47;;;;;;;10.85;9.65;;;15.70;99.90;;;;;;4883500;29;20211;-88
2023/09/29 03:51:33;;;;;;;13.73;9.38;;;15.80;99.90;;;;;;4897964;29;20184;-87
2023/09/29 03:53:59;;;;;;;11.02;8.70;;;15.90;99.90;;;;;;4900446;29;20246;-91
2023/09/29 03:56:25;;;;;;;12.45;9.32;;;16.00;99.90;;;;;;4916752;29;20168;-88
2023/09/29 03:58:55;;;;;;;11.35;8.27;;;16.00;99.90;;;;;;4916563;29;20263;-89
2023/09/29 04:01:22;;;;;;;11.18;8.35;;;16.00;99.90;;;;;;4916659;29;20186;-88
2023/09/29 04:03:48;;;;;;;10.98;8.38;;;16.10;99.90;;;;;;4916608;29;20195;-88
2023/09/29 04:06:15;;;;;;;9.27;7.22;;;16.20;99.90;;;;;;4901867;29;20171;-91
2023/09/29 04:08:41;;;;;;;10.38;8.10;;;16.20;99.90;;;;;;4901836;29;20167;-86
2023/09/29 04:11:07;;;;;;;10.15;7.97;;;16.20;99.90;;;;;;4900384;29;20219;-87
2023/09/29 04:13:33;;;;;;;10.00;7.45;;;16.20;99.90;;;;;;4916162;29;20183;-87
2023/09/29 04:16:04;;;;;;;11.05;7.70;;;16.20;99.90;;;;;;4901560;29;20265;-90
2023/09/29 04:18:30;;;;;;;9.82;7.05;;;16.30;99.90;;;;;;4915913;29;20183;-87
2023/09/29 04:20:56;;;;;;;11.45;7.32;;;16.30;99.90;;;;;;4916000;29;20187;-87
2023/09/29 04:23:22;;;;;;;10.88;6.80;;;16.30;99.90;;;;;;4916198;29;20214;-88
2023/09/29 04:25:48;;;;;;;11.18;7.45;;;16.30;99.90;;;;;;4901254;29;20576;-87
2023/09/29 04:28:13;;;;;;;9.63;6.97;;;16.30;99.90;;;;;;4900351;29;20211;-89
2023/09/29 04:30:40;;;;;;;10.65;7.35;;;16.40;99.90;;;;;;4901548;29;20171;-91
2023/09/29 04:33:05;;;;;;;9.05;6.95;;;16.40;99.90;;;;;;4899898;29;20649;-88
2023/09/29 04:35:39;;;;;;;8.23;6.88;;;16.40;99.90;;;;;;4916220;29;20183;-88
2023/09/29 04:38:05;;;;;;;9.45;7.05;;;16.40;99.90;;;;;;4901338;29;20172;-88
2023/09/29 04:40:31;;;;;;;9.40;6.93;;;16.40;99.90;;;;;;4915636;29;20175;-88
2023/09/29 04:42:57;;;;;;;11.02;7.00;;;16.40;99.90;;;;;;4899904;29;20183;-89
2023/09/29 04:45:23;;;;;;;11.18;7.10;;;16.40;99.90;;;;;;4899455;29;20187;-87
2023/09/29 04:47:49;;;;;;;10.30;6.50;;;16.40;99.90;;;;;;4899241;29;20247;-88
2023/09/29 04:50:14;;;;;;;10.40;6.85;;;16.40;99.90;;;;;;4900725;29;20623;-91
2023/09/29 04:52:40;;;;;;;9.95;6.70;;;16.40;99.90;;;;;;4915101;29;20278;-86
2023/09/29 04:55:06;;;;;;;8.25;6.03;;;16.40;99.90;;;;;;4909732;29;20254;-87
2023/09/29 04:57:32;;;;;;;9.88;6.95;;;16.40;99.90;;;;;;4896344;29;20192;-86
2023/09/29 04:59:58;;;;;;;8.32;6.68;;;16.40;99.90;;;;;;4896472;29;20555;-86
2023/09/29 05:02:28;;;;;;;8.50;6.85;;;16.40;99.90;;;;;;4896348;29;20212;-88
2023/09/29 05:04:55;;;;;;;11.07;5.93;;;16.40;99.90;;;;;;4896299;29;20180;-88
2023/09/29 05:07:21;;;;;;;9.15;6.07;;;16.40;99.90;;;;;;4896335;29;20241;-87
2023/09/29 05:09:47;;;;;;;8.90;5.97;;;16.50;99.90;;;;;;4895938;29;20638;-88
2023/09/29 05:12:13;;;;;;;8.13;6.28;;;16.50;99.90;;;;;;4896185;29;20211;-89
2023/09/29 05:14:38;;;;;;;7.57;5.93;;;16.50;99.90;;;;;;4896511;29;20670;-88
2023/09/29 05:17:04;;;;;;;12.05;6.60;;;16.50;99.90;;;;;;4881567;29;20186;-87
2023/09/29 05:19:31;;;;;;;10.35;6.43;;;16.50;99.90;;;;;;4895769;29;20624;-87
2023/09/29 05:21:57;;;;;;;9.95;6.57;;;16.50;99.90;;;;;;4903235;29;20191;-86
2023/09/29 05:24:22;;;;;;;8.90;6.45;;;16.50;99.90;;;;;;4914690;29;20273;-88
2023/09/29 05:26:48;;;;;;;8.57;6.13;;;16.50;99.90;;;;;;4914873;29;20301;-88
2023/09/29 05:29:14;;;;;;;7.55;5.90;;;16.50;99.90;;;;;;4914827;29;20183;-88
2023/09/29 05:31:39;;;;;;;11.30;6.10;;;16.50;99.90;;;;;;4899273;29;20523;-89
2023/09/29 05:34:05;;;;;;;8.90;6.13;;;16.50;99.90;;;;;;4914859;29;20207;-88
2023/09/29 05:36:33;;;;;;;8.10;6.10;;;16.50;99.90;;;;;;4900328;29;20588;-88
2023/09/29 05:38:59;;;;;;;6.43;5.47;;;16.50;99.90;;;;;;4900155;29;20194;-88
2023/09/29 05:41:24;;;;;;;7.38;6.20;;;16.60;99.90;;;;;;4898725;29;20215;-89
2023/09/29 05:43:51;;;;;;;8.93;6.03;;;16.60;99.90;;;;;;4914438;29;20191;-88
2023/09/29 05:46:16;;;;;;;9.70;6.18;;;16.60;99.90;;;;;;4899632;29;20262;-88
2023/09/29 05:48:42;;;;;;;8.88;6.03;;;16.60;99.90;;;;;;4900119;29;20730;-88
2023/09/29 05:51:08;;;;;;;6.85;5.93;;;16.70;99.90;;;;;;4914400;29;20182;-88
2023/09/29 05:53:33;;;;;;;6.63;5.93;;;16.70;99.90;;;;;;4899733;29;20258;-89
2023/09/29 05:56:08;;;;;;;9.15;5.82;;;16.70;99.90;;;;;;4914105;29;20663;-88
2023/09/29 05:58:37;;;;;;;7.57;6.13;;;16.70;99.90;;;;;;4914476;29;20182;-87
2023/09/29 06:01:15;;;;;;;7.32;5.90;;;16.70;99.90;;;;;;4914278;29;20265;-89
2023/09/29 06:03:41;;;;;;;10.63;5.75;;;16.70;99.90;;;;;;4914507;29;20191;-87
2023/09/29 06:06:09;;;;;;;6.97;5.82;;;16.70;99.90;;;;;;4898651;29;20189;-90
2023/09/29 06:08:36;;;;;;;10.45;6.10;;;16.80;99.90;;;;;;4914439;29;20186;-88
2023/09/29 06:11:03;;;;;;;10.43;6.38;;;16.80;99.90;;;;;;4914081;29;20198;-85
2023/09/29 06:13:29;;;;;;;7.28;5.85;;;16.80;99.90;;;;;;4914339;29;20207;-88
2023/09/29 06:15:56;;;;;;;11.10;5.95;;;16.80;99.90;;;;;;4914365;29;20215;-88
2023/09/29 06:18:26;;;;;;;10.52;6.03;;;16.80;99.90;;;;;;4914316;29;20179;-87
2023/09/29 06:20:51;;;;;;;8.35;6.03;;;16.80;99.90;;;;;;4914390;29;20266;-88
2023/09/29 06:23:17;;;;;;;8.68;5.63;;;16.80;99.90;;;;;;4899526;29;20270;-91
2023/09/29 06:25:43;;;;;;;6.28;5.43;;;16.90;99.90;;;;;;4914229;29;20206;-91
2023/09/29 06:28:09;;;;;;;10.82;4.90;;;16.90;99.90;;;;;;4914334;29;20679;-88
2023/09/29 06:30:35;;;;;;;7.60;5.60;;;16.90;99.90;;;;;;4915450;29;20171;-89
2023/09/29 06:33:01;;;;;;;7.60;5.68;;;16.90;99.90;;;;;;4918534;29;20274;-89
2023/09/29 06:35:27;;;;;;;12.10;5.72;;;17.00;99.90;;;;;;4902830;29;20215;-89
2023/09/29 06:38:00;;;;;;;8.43;5.40;;;17.00;99.90;;;;;;4918373;29;20246;-92
2023/09/29 06:40:25;;;;;;;8.65;5.90;;;17.00;99.90;;;;;;4917966;29;20179;-89
2023/09/29 06:42:51;;;;;;;7.35;5.18;;;17.10;99.90;;;;;;4902370;29;20626;-88
2023/09/29 06:45:17;;;;;;;8.02;5.68;;;17.10;99.90;;;;;;4918427;29;20524;-88
2023/09/29 06:47:50;;;;;;;9.10;6.10;;;17.10;99.90;;;;;;4918175;29;20227;-91
2023/09/29 06:50:16;;;;;;;7.28;5.70;;;17.10;99.90;;;;;;4918159;29;20179;-89
2023/09/29 06:52:42;;;;;;;9.90;5.95;;;17.20;99.90;;;;;;4917998;29;20660;-87
2023/09/29 06:55:08;;;;;;;7.05;5.30;;;17.20;99.90;;;;;;4917574;29;20238;-90
2023/09/29 06:57:36;;;;;;;10.52;6.43;;;17.20;99.90;;;;;;4918145;29;20190;-90
2023/09/29 07:00:03;;;;;;;8.52;5.57;;;17.30;99.90;;;;;;4903432;29;20250;-89
2023/09/29 07:02:29;;;;;;;7.50;5.60;;;17.30;99.90;;;;;;4917977;29;20523;-90
2023/09/29 07:04:55;;;;;;;9.13;5.53;;;17.30;99.90;;;;;;4917974;29;20183;-90
2023/09/29 07:07:21;;;;;;;9.85;5.80;;;17.30;99.90;;;;;;4902312;29;20755;-89
2023/09/29 07:09:47;;;;;;;8.98;5.93;;;17.40;99.90;;;;;;4917607;29;20183;-89
2023/09/29 07:12:13;;;;;;;11.25;5.72;;;17.30;99.90;;;;;;4917756;29;20611;-89
2023/09/29 07:14:39;;;;;;;10.60;5.65;;;17.40;99.90;;;;;;4917632;29;20189;-89
2023/09/29 07:17:05;;;;;;;9.68;5.28;;;17.40;99.90;;;;;;4903002;29;20179;-89
2023/09/29 07:19:32;;;;;;;11.35;5.57;;;17.40;99.90;;;;;;4917072;29;20182;-88
2023/09/29 07:21:58;;;;;;;6.72;5.18;;;17.40;99.90;;;;;;4916821;29;20187;-92
2023/09/29 07:24:23;;;;;;;8.70;5.25;;;17.40;99.90;;;;;;4885043;29;20642;-90
2023/09/29 07:26:50;;;;;;;10.30;4.80;;;17.30;99.90;;;;;;4864482;29;20655;-89
2023/09/29 07:29:16;;;;;;;8.88;4.72;;;17.40;99.90;;;;;;4879930;29;20184;-89
2023/09/29 07:31:47;;;;;;;9.02;4.90;;;17.40;99.90;;;;;;4879898;29;20207;-89
2023/09/29 07:34:15;;;;;;;7.05;4.88;;;17.40;99.90;;;;;;4879981;29;20185;-90
2023/09/29 07:36:43;;;;;;;8.82;4.72;;;17.40;99.90;;;;;;4880025;29;20276;-93
2023/09/29 07:39:11;;;;;;;7.65;4.85;;;17.40;99.90;;;;;;4880197;29;20188;-93
2023/09/29 07:41:37;;;;;;;10.18;4.88;;;17.50;99.90;;;;;;4879228;29;20275;-93
2023/09/29 07:44:03;;;;;;;11.23;5.03;;;17.50;99.90;;;;;;4880031;29;20276;-93
2023/09/29 07:46:29;;;;;;;10.00;4.82;;;17.50;99.90;;;;;;4879863;29;20212;-93
2023/09/29 07:48:57;;;;;;;6.82;5.00;;;17.50;99.90;;;;;;4879665;29;20185;-92
2023/09/29 07:51:24;;;;;;;6.68;4.57;;;17.50;99.90;;;;;;4886761;29;20661;-94
2023/09/29 07:53:52;;;;;;;7.35;5.10;;;17.60;99.90;;;;;;4916852;29;20323;-94
2023/09/29 07:56:17;;;;;;;5.82;4.75;;;17.60;99.90;;;;;;4901310;29;20611;-93
2023/09/29 07:58:46;;;;;;;6.38;4.53;;;17.60;99.90;;;;;;4916997;29;20188;-93
2023/09/29 08:01:11;;;;;;;7.70;4.60;;;17.60;99.90;;;;;;4901442;29;20619;-93
2023/09/29 08:03:37;;;;;;;6.60;4.90;;;17.70;99.90;;;;;;4902231;29;20179;-92
2023/09/29 08:06:04;;;;;;;13.18;4.63;;;17.70;99.90;;;;;;4917078;29;20187;-92
2023/09/29 08:08:31;;;;;;;6.95;4.43;;;17.70;99.90;;;;;;4916979;29;20219;-93
2023/09/29 08:10:57;;;;;;;10.85;5.15;;;17.80;99.90;;;;;;4916760;29;20563;-93
2023/09/29 08:13:23;;;;;;;8.10;5.00;;;17.80;99.90;;;;;;4902296;29;20179;-93
2023/09/29 08:15:49;;;;;;;6.70;5.00;;;17.90;99.90;;;;;;4916953;29;20185;-92
2023/09/29 08:18:17;;;;;;;9.02;4.70;;;17.80;99.90;;;;;;4902030;29;20187;-93
2023/09/29 08:20:43;;;;;;;8.02;4.78;;;17.90;99.90;;;;;;4916852;29;20270;-93
2023/09/29 08:23:09;;;;;;;5.22;4.43;;;17.90;99.90;;;;;;4916632;29;20276;-92
2023/09/29 08:25:35;;;;;;;7.20;4.70;;;18.00;99.90;;;;;;4916473;29;20175;-93
2023/09/29 08:28:02;;;;;;;7.60;4.15;;;18.00;99.90;;;;;;4916632;29;20226;-93
2023/09/29 08:30:29;;;;;;;9.23;4.63;;;18.00;99.90;;;;;;4916823;29;20175;-93
2023/09/29 08:32:55;;;;;;;10.25;4.78;;;18.10;99.90;;;;;;4916360;29;20526;-93
2023/09/29 08:35:21;;;;;;;7.63;4.43;;;18.10;99.90;;;;;;4916712;29;20190;-93
2023/09/29 08:37:47;;;;;;;7.70;4.43;;;18.20;99.90;;;;;;4916592;29;20315;-93
2023/09/29 08:40:16;;;;;;;7.28;4.60;;;18.20;99.90;;;;;;4916336;29;20211;-93
2023/09/29 08:42:49;;;;;;;8.07;4.40;;;18.20;99.90;;;;;;4916323;29;20219;-92
2023/09/29 08:45:18;;;;;;;10.32;4.75;;;18.30;99.90;;;;;;4916469;29;20179;-93
2023/09/29 08:47:52;;;;;;;9.55;4.90;;;18.30;99.90;;;;;;4916257;29;20654;-93
2023/09/29 08:50:19;;;;;;;9.13;4.57;;;18.40;99.90;;;;;;4916207;29;20183;-93
2023/09/29 08:52:45;;;;;;;10.75;5.07;;;18.40;99.90;;;;;;4915694;29;20227;-92
2023/09/29 08:55:12;;;;;;;7.55;4.55;;;18.50;99.90;;;;;;4915524;29;20231;-94
2023/09/29 08:57:45;;;;;;;5.85;4.63;;;18.50;99.90;;;;;;4916066;29;20183;-93
2023/09/29 09:00:15;;;;;;;10.68;5.18;;;18.50;99.90;;;;;;4916376;29;20179;-94
2023/09/29 09:02:45;;;;;;;8.60;5.22;;;18.50;99.90;;;;;;4916843;29;20171;-93
2023/09/29 09:05:12;;;;;;;10.30;5.75;;;18.60;99.90;;;;;;4916390;29;20183;-93
2023/09/29 09:07:43;;;;;;;11.13;6.07;;;18.50;99.90;;;;;;4916030;29;20211;-92
2023/09/29 09:10:10;;;;;;;14.07;6.00;;;18.50;99.90;;;;;;4914757;29;20181;-91
2023/09/29 09:12:40;;;;;;;12.88;6.60;;;18.50;99.90;;;;;;4899385;29;20179;-90
2023/09/29 09:15:08;;;;;;;12.43;5.60;;;18.50;99.90;;;;;;4915400;29;20179;-91
2023/09/29 09:17:36;;;;;;;8.70;5.68;;;18.60;99.90;;;;;;4915584;29;20193;-91
2023/09/29 09:20:02;;;;;;;10.15;6.03;;;18.70;99.90;;;;;;4915823;29;20568;-93
2023/09/29 09:22:32;;;;;;;11.23;6.00;;;18.70;99.90;;;;;;4915572;29;20222;-92
2023/09/29 09:24:59;;;;;;;8.02;5.70;;;18.80;99.90;;;;;;4915174;29;20211;-92
2023/09/29 09:27:26;;;;;;;7.25;6.03;;;18.80;99.90;;;;;;4915451;29;20216;-92
2023/09/29 09:29:53;;;;;;;8.55;5.57;;;18.80;99.90;;;;;;4915604;29;20183;-91
2023/09/29 09:32:28;;;;;;;7.60;5.47;;;18.80;99.90;;;;;;4915576;29;20183;-92
2023/09/29 09:34:54;;;;;;;8.30;4.95;;;18.80;99.90;;;;;;4915627;29;20178;-92
2023/09/29 09:37:36;;;;;;;5.80;4.30;;;18.80;99.90;;;;;;4915364;29;20528;-91
2023/09/29 09:40:04;;;;;;;5.60;4.75;;;18.80;99.90;;;;;;4915256;29;20331;-92
2023/09/29 09:42:30;;;;;;;7.47;4.40;;;18.80;99.90;;;;;;4915245;29;20194;-92
2023/09/29 09:44:57;;;;;;;10.13;4.57;;;18.80;99.90;;;;;;4915705;29;20180;-93
2023/09/29 09:47:26;;;;;;;5.88;4.30;;;18.80;99.90;;;;;;4915098;29;20222;-92
2023/09/29 09:49:56;;;;;;;8.95;4.38;;;18.90;99.90;;;;;;4900677;29;20320;-92
2023/09/29 09:52:30;;;;;;;7.20;4.70;;;18.90;99.90;;;;;;4915080;29;20187;-93
2023/09/29 09:54:58;;;;;;;5.95;4.35;;;19.00;99.90;;;;;;4914851;29;20313;-92
2023/09/29 09:57:41;;;;;;;7.07;4.13;;;19.10;99.90;;;;;;4915147;29;20189;-93
2023/09/29 10:00:10;;;;;;;11.13;4.68;;;19.20;99.90;;;;;;4915246;29;20179;-92
2023/09/29 10:02:49;;;;;;;5.57;4.10;;;19.20;99.90;;;;;;4900473;29;20224;-92
2023/09/29 10:05:25;;;;;;;8.77;4.50;;;19.30;99.90;;;;;;4915226;29;20175;-90
2023/09/29 10:08:05;;;;;;;8.27;4.07;;;19.40;99.90;;;;;;4914904;29;20301;-92
2023/09/29 10:10:37;;;;;;;6.93;3.85;;;19.40;99.90;;;;;;4914932;29;20175;-91
2023/09/29 10:13:05;;;;;;;7.13;4.35;;;19.50;99.90;;;;;;4914678;29;20176;-92
2023/09/29 10:15:32;;;;;;;9.38;4.20;;;19.60;99.90;;;;;;4899194;29;20187;-91
2023/09/29 10:18:18;;;;;;;6.22;4.45;;;19.70;99.90;;;;;;4914708;29;20180;-91
2023/09/29 10:20:58;;;;;;;5.55;3.97;;;19.80;99.90;;;;;;4914857;29;20175;-91
2023/09/29 10:23:27;;;;;;;6.38;4.00;;;19.90;99.90;;;;;;4914888;29;20513;-92
2023/09/29 10:26:02;;;;;;;7.03;4.40;;;20.00;99.90;;;;;;4914872;29;20194;-94
2023/09/29 10:28:34;;;;;;;10.27;4.47;;;20.00;99.90;;;;;;4914913;29;20553;-93
2023/09/29 10:31:15;;;;;;;7.68;4.80;;;20.00;99.90;;;;;;4915123;29;20172;-96
2023/09/29 10:33:59;;;;;;;5.82;4.13;;;20.10;99.90;;;;;;4915016;29;20207;-91
2023/09/29 10:36:28;;;;;;;7.25;3.70;;;20.20;99.90;;;;;;4915485;29;20175;-93
2023/09/29 10:39:04;;;;;;;5.53;3.83;;;20.30;99.90;;;;;;4915746;29;20187;-95
2023/09/29 10:41:32;;;;;;;5.30;3.70;;;20.40;99.90;;;;;;4915347;29;20187;-95
2023/09/29 10:43:59;;;;;;;5.22;3.60;;;20.40;99.90;;;;;;4916551;29;20179;-96
2023/09/29 10:46:26;;;;;;;6.05;3.67;;;20.50;99.90;;;;;;4919893;29;20190;-96
2023/09/29 10:48:59;;;;;;;9.05;3.90;;;20.60;99.90;;;;;;4920004;29;20175;-96
2023/09/29 10:51:31;;;;;;;5.75;3.80;;;20.60;99.90;;;;;;4899760;29;20195;-96
2023/09/29 10:54:07;;;;;;;6.80;3.75;;;20.70;99.90;;;;;;4902079;29;20223;-96
2023/09/29 10:56:35;;;;;;;9.90;3.47;;;20.70;99.90;;;;;;4914508;29;20193;-95
2023/09/29 10:59:09;;;;;;;6.07;3.60;;;20.80;99.90;;;;;;4918312;29;20266;-96
2023/09/29 11:01:37;;;;;;;8.00;3.45;;;20.90;99.90;;;;;;4904260;29;20182;-95
2023/09/29 11:04:10;;;;;;;7.30;3.13;;;20.90;99.90;;;;;;4918046;29;20223;-96
2023/09/29 11:06:49;;;;;;;6.22;3.35;;;21.00;99.90;;;;;;4917167;29;20222;-96
2023/09/29 11:09:19;;;;;;;5.30;3.15;;;21.10;99.90;;;;;;4915848;29;20183;-95
2023/09/29 11:11:47;;;;;;;6.55;2.78;;;21.10;99.90;;;;;;4918248;29;20175;-96
2023/09/29 11:14:14;;;;;;;8.27;3.15;;;21.10;99.90;;;;;;4922164;29;20275;-96
2023/09/29 11:16:40;;;;;;;5.10;2.80;;;21.10;99.90;;;;;;4919546;29;20179;-89
2023/09/29 11:19:15;;;;;;;4.40;3.00;;;21.20;99.90;;;;;;4921235;29;20180;-94
2023/09/29 11:21:54;;;;;;;5.90;2.70;;;21.30;99.90;;;;;;4957894;23;20606;-96
2023/09/29 11:24:43;;;;;;;6.85;3.05;;;21.20;99.90;;;;;;4886068;29;20180;-95
2023/09/29 11:27:32;;;;;;;6.00;2.95;;;21.30;99.90;;;;;;4885773;29;20262;-96
2023/09/29 11:30:06;;;;;;;6.68;3.00;;;21.40;99.90;;;;;;4884309;29;20188;-96
2023/09/29 11:32:56;;;;;;;5.68;2.90;;;21.50;99.90;;;;;;4882618;29;20200;-96
2023/09/29 11:36:09;;;;;;;9.55;3.25;;;21.60;99.90;;;;;;4884220;29;20176;-96
2023/09/29 11:38:49;;;;;;;4.93;2.63;;;21.60;99.90;;;;;;4884592;29;20176;-96
2023/09/29 11:41:29;;;;;;;6.07;3.05;;;21.60;99.90;;;;;;4885418;29;20192;-96
2023/09/29 11:44:45;;;;;;;5.80;2.60;;;21.60;99.90;;;;;;4883549;29;20534;-96
2023/09/29 11:47:13;;;;;;;4.43;2.83;;;21.70;99.90;;;;;;4881851;29;20612;-96
2023/09/29 11:49:46;;;;;;;7.63;3.00;;;21.70;99.90;;;;;;4884076;29;20199;-96
2023/09/29 11:52:54;;;;;;;7.28;3.00;;;21.70;99.90;;;;;;4883382;29;20760;-96
2023/09/29 11:55:21;;;;;;;6.30;2.85;;;21.70;99.90;;;;;;4880255;29;20652;-95
2023/09/29 11:58:23;;;;;;;6.53;2.45;;;22.10;99.90;;;;;;4885186;29;20191;-96
2023/09/29 12:01:29;;;;;;;4.00;2.80;;;22.30;99.90;;;;;;4882739;29;20243;-96
2023/09/29 12:04:07;;;;;;;6.22;3.10;;;22.60;99.90;;;;;;4884088;29;20187;-96
2023/09/29 12:06:33;;;;;;;7.75;3.15;;;22.60;99.90;;;;;;4882832;29;20180;-96
2023/09/29 12:12:01;;;;;;;5.82;2.97;;;23.10;99.90;;;;;;4887092;29;20282;-96
2023/09/29 12:14:52;;;;;;;4.50;2.78;;;23.10;99.90;;;;;;4882394;29;20175;-96
2023/09/29 12:17:46;;;;;;;5.88;2.47;;;23.20;99.90;;;;;;4883971;29;20192;-96
2023/09/29 12:20:31;;;;;;;4.38;2.50;;;23.40;99.90;;;;;;4882042;29;20191;-96
2023/09/29 12:23:02;;;;;;;5.78;2.80;;;23.50;99.90;;;;;;4884577;29;20283;-96
2023/09/29 12:25:56;;;;;;;5.38;2.80;;;23.80;99.90;;;;;;4884248;29;20287;-96
2023/09/29 12:28:39;;;;;;;5.40;2.67;;;24.00;99.90;;;;;;4879161;29;20219;-96
2023/09/29 12:31:24;;;;;;;6.82;2.47;;;24.10;99.90;;;;;;4881526;29;20613;-96
2023/09/29 12:34:00;;;;;;;8.13;2.67;;;23.90;99.90;;;;;;4881714;29;20244;-96
2023/09/29 12:36:41;;;;;;;3.70;2.58;;;23.70;99.90;;;;;;4882648;29;20640;-95
2023/09/29 12:39:34;;;;;;;3.88;2.85;;;23.30;99.90;;;;;;4881129;29;20223;-95
2023/09/29 12:43:18;;;;;;;6.78;2.85;;;23.10;99.90;;;;;;4881778;29;20208;-95
2023/09/29 12:45:49;;;;;;;9.85;2.75;;;23.10;99.90;;;;;;4884328;29;20215;-96
2023/09/29 12:48:34;;;;;;;5.85;2.72;;;23.50;99.90;;;;;;4883707;29;20212;-96
2023/09/29 12:51:01;;;;;;;7.70;2.92;;;23.80;99.90;;;;;;4880884;29;20184;-96
2023/09/29 12:53:47;;;;;;;6.80;2.80;;;24.00;99.90;;;;;;4954623;23;20234;-92
2023/09/29 12:56:16;;;;;;;7.63;3.08;;;24.10;99.90;;;;;;4898143;29;20524;-93
2023/09/29 12:58:42;;;;;;;6.22;3.05;;;24.00;99.90;;;;;;4882692;29;20642;-94
2023/09/29 13:01:10;;;;;;;6.57;2.90;;;23.90;99.90;;;;;;4882833;29;20191;-92
2023/09/29 13:03:39;;;;;;;6.78;2.53;;;23.70;99.90;;;;;;4898312;29;20180;-95